sensor_id;sensor_type;location;lat;lon;timestamp;P1;durP1;ratioP1;P2;durP2;ratioP2
77798;SDS011;66989;50.426;15.352;2023-03-13T00:03:43;11.80;;;6.68;;
77798;SDS011;66989;50.426;15.352;2023-03-13T00:06:09;11.65;;;6.18;;
77798;SDS011;66989;50.426;15.352;2023-03-13T00:08:35;10.95;;;7.05;;
77798;SDS011;66989;50.426;15.352;2023-03-13T00:11:04;11.75;;;8.15;;
77798;SDS011;66989;50.426;15.352;2023-03-13T00:13:31;14.60;;;9.23;;
77798;SDS011;66989;50.426;15.352;2023-03-13T00:16:03;9.55;;;5.25;;
77798;SDS011;66989;50.426;15.352;2023-03-13T00:18:30;10.65;;;6.22;;
77798;SDS011;66989;50.426;15.352;2023-03-13T00:23:24;10.52;;;5.80;;
77798;SDS011;66989;50.426;15.352;2023-03-13T00:25:54;12.67;;;7.73;;
77798;SDS011;66989;50.426;15.352;2023-03-13T00:28:21;12.20;;;7.60;;
77798;SDS011;66989;50.426;15.352;2023-03-13T00:30:47;12.93;;;7.33;;
77798;SDS011;66989;50.426;15.352;2023-03-13T00:33:12;14.93;;;7.95;;
77798;SDS011;66989;50.426;15.352;2023-03-13T00:35:37;14.33;;;8.83;;
77798;SDS011;66989;50.426;15.352;2023-03-13T00:38:03;12.53;;;8.57;;
77798;SDS011;66989;50.426;15.352;2023-03-13T00:40:28;10.77;;;7.78;;
77798;SDS011;66989;50.426;15.352;2023-03-13T00:42:53;11.87;;;7.57;;
77798;SDS011;66989;50.426;15.352;2023-03-13T00:45:19;10.00;;;8.37;;
77798;SDS011;66989;50.426;15.352;2023-03-13T00:47:44;10.95;;;7.55;;
77798;SDS011;66989;50.426;15.352;2023-03-13T00:50:09;12.60;;;7.63;;
77798;SDS011;66989;50.426;15.352;2023-03-13T00:52:35;11.98;;;7.05;;
77798;SDS011;66989;50.426;15.352;2023-03-13T00:55:00;12.70;;;6.93;;
77798;SDS011;66989;50.426;15.352;2023-03-13T00:57:26;8.98;;;5.15;;
77798;SDS011;66989;50.426;15.352;2023-03-13T00:59:51;7.22;;;4.65;;
77798;SDS011;66989;50.426;15.352;2023-03-13T01:02:17;6.32;;;3.95;;
77798;SDS011;66989;50.426;15.352;2023-03-13T01:04:42;6.95;;;4.85;;
77798;SDS011;66989;50.426;15.352;2023-03-13T01:07:07;7.10;;;4.30;;
77798;SDS011;66989;50.426;15.352;2023-03-13T01:09:33;8.50;;;5.13;;
77798;SDS011;66989;50.426;15.352;2023-03-13T01:11:58;10.27;;;5.87;;
77798;SDS011;66989;50.426;15.352;2023-03-13T01:14:23;14.45;;;7.03;;
77798;SDS011;66989;50.426;15.352;2023-03-13T01:16:49;8.38;;;4.65;;
77798;SDS011;66989;50.426;15.352;2023-03-13T01:19:15;13.35;;;8.85;;
77798;SDS011;66989;50.426;15.352;2023-03-13T01:21:41;14.10;;;9.57;;
77798;SDS011;66989;50.426;15.352;2023-03-13T01:24:08;11.13;;;6.20;;
77798;SDS011;66989;50.426;15.352;2023-03-13T01:26:33;14.35;;;8.65;;
77798;SDS011;66989;50.426;15.352;2023-03-13T01:28:59;11.88;;;7.13;;
77798;SDS011;66989;50.426;15.352;2023-03-13T01:31:31;11.63;;;6.70;;
77798;SDS011;66989;50.426;15.352;2023-03-13T01:33:59;14.40;;;7.57;;
77798;SDS011;66989;50.426;15.352;2023-03-13T01:36:26;17.70;;;10.52;;
77798;SDS011;66989;50.426;15.352;2023-03-13T01:38:53;15.63;;;10.32;;
77798;SDS011;66989;50.426;15.352;2023-03-13T01:41:20;14.60;;;8.25;;
77798;SDS011;66989;50.426;15.352;2023-03-13T01:43:46;17.77;;;9.48;;
77798;SDS011;66989;50.426;15.352;2023-03-13T01:46:13;13.48;;;8.15;;
77798;SDS011;66989;50.426;15.352;2023-03-13T01:48:51;13.18;;;7.10;;
77798;SDS011;66989;50.426;15.352;2023-03-13T01:51:29;15.18;;;9.63;;
77798;SDS011;66989;50.426;15.352;2023-03-13T01:54:02;13.25;;;8.85;;
77798;SDS011;66989;50.426;15.352;2023-03-13T01:56:34;13.82;;;9.23;;
77798;SDS011;66989;50.426;15.352;2023-03-13T01:59:00;11.25;;;5.68;;
77798;SDS011;66989;50.426;15.352;2023-03-13T02:01:28;13.98;;;8.63;;
77798;SDS011;66989;50.426;15.352;2023-03-13T02:03:55;15.93;;;11.13;;
77798;SDS011;66989;50.426;15.352;2023-03-13T02:06:22;14.85;;;8.85;;
77798;SDS011;66989;50.426;15.352;2023-03-13T02:09:07;14.25;;;7.57;;
77798;SDS011;66989;50.426;15.352;2023-03-13T02:11:51;15.98;;;9.52;;
77798;SDS011;66989;50.426;15.352;2023-03-13T02:14:22;14.85;;;10.52;;
77798;SDS011;66989;50.426;15.352;2023-03-13T02:16:52;15.77;;;9.32;;
77798;SDS011;66989;50.426;15.352;2023-03-13T02:27:51;17.10;;;8.70;;
77798;SDS011;66989;50.426;15.352;2023-03-13T02:30:18;14.05;;;10.43;;
77798;SDS011;66989;50.426;15.352;2023-03-13T02:32:44;13.73;;;8.73;;
77798;SDS011;66989;50.426;15.352;2023-03-13T02:35:11;12.75;;;8.23;;
77798;SDS011;66989;50.426;15.352;2023-03-13T02:37:42;15.18;;;9.10;;
77798;SDS011;66989;50.426;15.352;2023-03-13T02:40:12;12.48;;;9.05;;
77798;SDS011;66989;50.426;15.352;2023-03-13T02:42:42;15.27;;;11.05;;
77798;SDS011;66989;50.426;15.352;2023-03-13T02:45:12;15.43;;;11.50;;
77798;SDS011;66989;50.426;15.352;2023-03-13T02:47:38;14.30;;;8.93;;
77798;SDS011;66989;50.426;15.352;2023-03-13T02:50:04;16.08;;;10.35;;
77798;SDS011;66989;50.426;15.352;2023-03-13T02:52:30;15.20;;;9.38;;
77798;SDS011;66989;50.426;15.352;2023-03-13T02:55:04;15.73;;;10.43;;
77798;SDS011;66989;50.426;15.352;2023-03-13T02:57:32;12.85;;;6.93;;
77798;SDS011;66989;50.426;15.352;2023-03-13T02:59:59;18.60;;;9.35;;
77798;SDS011;66989;50.426;15.352;2023-03-13T03:02:25;11.07;;;6.32;;
77798;SDS011;66989;50.426;15.352;2023-03-13T03:04:50;13.43;;;7.13;;
77798;SDS011;66989;50.426;15.352;2023-03-13T03:07:15;12.03;;;7.67;;
77798;SDS011;66989;50.426;15.352;2023-03-13T03:09:41;10.38;;;6.70;;
77798;SDS011;66989;50.426;15.352;2023-03-13T03:12:06;15.35;;;8.93;;
77798;SDS011;66989;50.426;15.352;2023-03-13T03:14:32;15.35;;;9.73;;
77798;SDS011;66989;50.426;15.352;2023-03-13T03:16:57;12.88;;;7.88;;
77798;SDS011;66989;50.426;15.352;2023-03-13T03:19:23;19.75;;;12.35;;
77798;SDS011;66989;50.426;15.352;2023-03-13T03:21:48;15.95;;;9.00;;
77798;SDS011;66989;50.426;15.352;2023-03-13T03:24:13;14.93;;;8.07;;
77798;SDS011;66989;50.426;15.352;2023-03-13T03:26:39;17.15;;;10.80;;
77798;SDS011;66989;50.426;15.352;2023-03-13T03:29:04;17.40;;;10.13;;
77798;SDS011;66989;50.426;15.352;2023-03-13T03:31:31;20.98;;;10.32;;
77798;SDS011;66989;50.426;15.352;2023-03-13T03:33:57;19.10;;;10.75;;
77798;SDS011;66989;50.426;15.352;2023-03-13T03:36:22;20.02;;;11.35;;
77798;SDS011;66989;50.426;15.352;2023-03-13T03:38:48;19.75;;;11.65;;
77798;SDS011;66989;50.426;15.352;2023-03-13T03:41:14;21.23;;;11.05;;
77798;SDS011;66989;50.426;15.352;2023-03-13T03:43:40;20.95;;;12.55;;
77798;SDS011;66989;50.426;15.352;2023-03-13T03:46:06;21.23;;;11.35;;
77798;SDS011;66989;50.426;15.352;2023-03-13T03:48:32;21.08;;;11.40;;
77798;SDS011;66989;50.426;15.352;2023-03-13T03:50:58;15.95;;;9.88;;
77798;SDS011;66989;50.426;15.352;2023-03-13T03:53:23;21.23;;;11.65;;
77798;SDS011;66989;50.426;15.352;2023-03-13T03:55:49;19.92;;;9.68;;
77798;SDS011;66989;50.426;15.352;2023-03-13T03:58:14;19.65;;;8.63;;
77798;SDS011;66989;50.426;15.352;2023-03-13T04:00:43;15.45;;;8.82;;
77798;SDS011;66989;50.426;15.352;2023-03-13T04:03:10;18.65;;;11.05;;
77798;SDS011;66989;50.426;15.352;2023-03-13T04:05:36;20.63;;;11.38;;
77798;SDS011;66989;50.426;15.352;2023-03-13T04:08:02;23.65;;;12.50;;
77798;SDS011;66989;50.426;15.352;2023-03-13T04:10:27;20.50;;;13.00;;
77798;SDS011;66989;50.426;15.352;2023-03-13T04:12:53;19.80;;;12.18;;
77798;SDS011;66989;50.426;15.352;2023-03-13T04:15:18;22.23;;;12.15;;
77798;SDS011;66989;50.426;15.352;2023-03-13T04:17:44;16.00;;;8.87;;
77798;SDS011;66989;50.426;15.352;2023-03-13T04:20:09;12.33;;;7.20;;
77798;SDS011;66989;50.426;15.352;2023-03-13T04:22:37;15.50;;;7.75;;
77798;SDS011;66989;50.426;15.352;2023-03-13T04:25:03;20.23;;;10.13;;
77798;SDS011;66989;50.426;15.352;2023-03-13T04:27:28;18.70;;;10.48;;
77798;SDS011;66989;50.426;15.352;2023-03-13T04:29:53;15.55;;;7.95;;
77798;SDS011;66989;50.426;15.352;2023-03-13T04:32:19;20.40;;;9.23;;
77798;SDS011;66989;50.426;15.352;2023-03-13T04:34:44;14.97;;;7.13;;
77798;SDS011;66989;50.426;15.352;2023-03-13T04:37:10;13.20;;;7.53;;
77798;SDS011;66989;50.426;15.352;2023-03-13T04:39:35;20.63;;;10.38;;
77798;SDS011;66989;50.426;15.352;2023-03-13T04:42:00;16.13;;;8.55;;
77798;SDS011;66989;50.426;15.352;2023-03-13T04:44:26;17.95;;;10.32;;
77798;SDS011;66989;50.426;15.352;2023-03-13T04:46:51;18.83;;;10.17;;
77798;SDS011;66989;50.426;15.352;2023-03-13T04:49:16;15.95;;;8.85;;
77798;SDS011;66989;50.426;15.352;2023-03-13T04:51:42;16.83;;;9.10;;
77798;SDS011;66989;50.426;15.352;2023-03-13T04:54:09;21.95;;;12.05;;
77798;SDS011;66989;50.426;15.352;2023-03-13T04:56:35;20.05;;;11.57;;
77798;SDS011;66989;50.426;15.352;2023-03-13T04:59:00;16.50;;;8.93;;
77798;SDS011;66989;50.426;15.352;2023-03-13T05:01:25;18.13;;;10.65;;
77798;SDS011;66989;50.426;15.352;2023-03-13T05:03:51;16.38;;;9.98;;
77798;SDS011;66989;50.426;15.352;2023-03-13T05:06:16;17.60;;;10.37;;
77798;SDS011;66989;50.426;15.352;2023-03-13T05:08:42;19.45;;;11.00;;
77798;SDS011;66989;50.426;15.352;2023-03-13T05:11:07;16.85;;;9.18;;
77798;SDS011;66989;50.426;15.352;2023-03-13T05:13:33;21.50;;;11.75;;
77798;SDS011;66989;50.426;15.352;2023-03-13T05:15:58;19.77;;;10.80;;
77798;SDS011;66989;50.426;15.352;2023-03-13T05:18:23;18.08;;;10.07;;
77798;SDS011;66989;50.426;15.352;2023-03-13T05:20:49;16.52;;;9.93;;
77798;SDS011;66989;50.426;15.352;2023-03-13T05:23:14;13.10;;;7.53;;
77798;SDS011;66989;50.426;15.352;2023-03-13T05:25:40;17.05;;;9.63;;
77798;SDS011;66989;50.426;15.352;2023-03-13T05:28:05;18.30;;;10.68;;
77798;SDS011;66989;50.426;15.352;2023-03-13T05:30:31;13.40;;;8.40;;
77798;SDS011;66989;50.426;15.352;2023-03-13T05:32:56;19.10;;;12.60;;
77798;SDS011;66989;50.426;15.352;2023-03-13T05:35:21;17.23;;;10.90;;
77798;SDS011;66989;50.426;15.352;2023-03-13T05:37:47;18.48;;;12.40;;
77798;SDS011;66989;50.426;15.352;2023-03-13T05:40:12;15.57;;;9.13;;
77798;SDS011;66989;50.426;15.352;2023-03-13T05:42:38;12.85;;;7.30;;
77798;SDS011;66989;50.426;15.352;2023-03-13T05:45:04;15.07;;;9.90;;
77798;SDS011;66989;50.426;15.352;2023-03-13T05:47:30;18.05;;;11.05;;
77798;SDS011;66989;50.426;15.352;2023-03-13T05:49:55;16.05;;;9.10;;
77798;SDS011;66989;50.426;15.352;2023-03-13T05:52:20;15.87;;;9.73;;
77798;SDS011;66989;50.426;15.352;2023-03-13T05:54:46;20.98;;;11.25;;
77798;SDS011;66989;50.426;15.352;2023-03-13T05:57:12;33.85;;;17.80;;
77798;SDS011;66989;50.426;15.352;2023-03-13T05:59:37;33.97;;;20.40;;
77798;SDS011;66989;50.426;15.352;2023-03-13T06:02:03;25.20;;;15.38;;
77798;SDS011;66989;50.426;15.352;2023-03-13T06:04:30;26.55;;;14.98;;
77798;SDS011;66989;50.426;15.352;2023-03-13T06:06:55;21.13;;;12.68;;
77798;SDS011;66989;50.426;15.352;2023-03-13T06:09:21;22.65;;;12.23;;
77798;SDS011;66989;50.426;15.352;2023-03-13T06:11:46;22.77;;;12.27;;
77798;SDS011;66989;50.426;15.352;2023-03-13T06:14:11;19.40;;;11.37;;
77798;SDS011;66989;50.426;15.352;2023-03-13T06:16:37;19.70;;;11.40;;
77798;SDS011;66989;50.426;15.352;2023-03-13T06:19:02;19.60;;;11.15;;
77798;SDS011;66989;50.426;15.352;2023-03-13T06:21:28;20.40;;;11.20;;
77798;SDS011;66989;50.426;15.352;2023-03-13T06:23:55;14.20;;;9.63;;
77798;SDS011;66989;50.426;15.352;2023-03-13T06:26:20;17.97;;;10.23;;
77798;SDS011;66989;50.426;15.352;2023-03-13T06:28:48;17.38;;;9.80;;
77798;SDS011;66989;50.426;15.352;2023-03-13T06:31:13;17.73;;;10.00;;
77798;SDS011;66989;50.426;15.352;2023-03-13T06:33:39;17.75;;;8.88;;
77798;SDS011;66989;50.426;15.352;2023-03-13T06:36:04;14.70;;;8.60;;
77798;SDS011;66989;50.426;15.352;2023-03-13T06:38:30;10.30;;;6.70;;
77798;SDS011;66989;50.426;15.352;2023-03-13T06:40:56;13.82;;;8.43;;
77798;SDS011;66989;50.426;15.352;2023-03-13T06:43:22;11.32;;;6.80;;
77798;SDS011;66989;50.426;15.352;2023-03-13T06:45:48;13.82;;;8.57;;
77798;SDS011;66989;50.426;15.352;2023-03-13T06:48:13;14.63;;;7.75;;
77798;SDS011;66989;50.426;15.352;2023-03-13T06:50:39;14.32;;;8.00;;
77798;SDS011;66989;50.426;15.352;2023-03-13T06:53:05;12.70;;;7.82;;
77798;SDS011;66989;50.426;15.352;2023-03-13T06:55:31;18.90;;;8.25;;
77798;SDS011;66989;50.426;15.352;2023-03-13T06:57:56;15.00;;;7.90;;
77798;SDS011;66989;50.426;15.352;2023-03-13T07:00:22;17.60;;;10.00;;
77798;SDS011;66989;50.426;15.352;2023-03-13T07:02:48;15.88;;;8.32;;
77798;SDS011;66989;50.426;15.352;2023-03-13T07:05:14;30.77;;;16.85;;
77798;SDS011;66989;50.426;15.352;2023-03-13T07:07:40;20.08;;;10.82;;
77798;SDS011;66989;50.426;15.352;2023-03-13T07:10:06;18.17;;;10.90;;
77798;SDS011;66989;50.426;15.352;2023-03-13T07:12:34;23.98;;;14.82;;
77798;SDS011;66989;50.426;15.352;2023-03-13T07:15:02;17.05;;;11.57;;
77798;SDS011;66989;50.426;15.352;2023-03-13T07:17:28;20.63;;;11.45;;
77798;SDS011;66989;50.426;15.352;2023-03-13T07:19:54;19.20;;;10.93;;
77798;SDS011;66989;50.426;15.352;2023-03-13T07:22:19;17.98;;;11.82;;
77798;SDS011;66989;50.426;15.352;2023-03-13T07:24:44;18.00;;;9.02;;
77798;SDS011;66989;50.426;15.352;2023-03-13T07:27:10;12.98;;;7.57;;
77798;SDS011;66989;50.426;15.352;2023-03-13T07:29:35;18.08;;;9.90;;
77798;SDS011;66989;50.426;15.352;2023-03-13T07:32:01;19.02;;;8.60;;
77798;SDS011;66989;50.426;15.352;2023-03-13T07:34:26;13.65;;;6.20;;
77798;SDS011;66989;50.426;15.352;2023-03-13T07:36:52;13.98;;;9.07;;
77798;SDS011;66989;50.426;15.352;2023-03-13T07:39:18;15.73;;;9.02;;
77798;SDS011;66989;50.426;15.352;2023-03-13T07:41:44;14.50;;;7.75;;
77798;SDS011;66989;50.426;15.352;2023-03-13T07:44:09;16.42;;;8.45;;
77798;SDS011;66989;50.426;15.352;2023-03-13T07:46:34;16.00;;;8.10;;
77798;SDS011;66989;50.426;15.352;2023-03-13T07:49:01;15.00;;;9.00;;
77798;SDS011;66989;50.426;15.352;2023-03-13T07:51:27;13.07;;;6.85;;
77798;SDS011;66989;50.426;15.352;2023-03-13T07:53:52;17.13;;;7.15;;
77798;SDS011;66989;50.426;15.352;2023-03-13T07:56:19;15.32;;;7.22;;
77798;SDS011;66989;50.426;15.352;2023-03-13T07:58:46;13.52;;;7.82;;
77798;SDS011;66989;50.426;15.352;2023-03-13T08:01:19;10.52;;;5.63;;
77798;SDS011;66989;50.426;15.352;2023-03-13T08:03:46;15.13;;;7.50;;
77798;SDS011;66989;50.426;15.352;2023-03-13T08:06:17;13.52;;;5.93;;
77798;SDS011;66989;50.426;15.352;2023-03-13T08:08:44;21.05;;;8.02;;
77798;SDS011;66989;50.426;15.352;2023-03-13T08:11:11;17.90;;;6.38;;
77798;SDS011;66989;50.426;15.352;2023-03-13T08:13:39;13.23;;;5.88;;
77798;SDS011;66989;50.426;15.352;2023-03-13T08:16:15;14.38;;;5.40;;
77798;SDS011;66989;50.426;15.352;2023-03-13T08:18:44;9.82;;;4.10;;
77798;SDS011;66989;50.426;15.352;2023-03-13T08:21:11;10.73;;;4.75;;
77798;SDS011;66989;50.426;15.352;2023-03-13T08:23:39;9.23;;;3.47;;
77798;SDS011;66989;50.426;15.352;2023-03-13T08:26:09;9.50;;;4.18;;
77798;SDS011;66989;50.426;15.352;2023-03-13T08:28:46;9.18;;;3.70;;
77798;SDS011;66989;50.426;15.352;2023-03-13T08:31:17;9.20;;;3.05;;
77798;SDS011;66989;50.426;15.352;2023-03-13T08:33:45;6.50;;;3.17;;
77798;SDS011;66989;50.426;15.352;2023-03-13T08:36:12;8.32;;;3.35;;
77798;SDS011;66989;50.426;15.352;2023-03-13T08:38:40;10.82;;;3.15;;
77798;SDS011;66989;50.426;15.352;2023-03-13T08:41:07;10.27;;;2.38;;
77798;SDS011;66989;50.426;15.352;2023-03-13T08:43:33;7.32;;;1.50;;
77798;SDS011;66989;50.426;15.352;2023-03-13T08:46:00;9.93;;;2.38;;
77798;SDS011;66989;50.426;15.352;2023-03-13T08:48:25;7.75;;;1.67;;
77798;SDS011;66989;50.426;15.352;2023-03-13T08:51:10;5.90;;;1.63;;
77798;SDS011;66989;50.426;15.352;2023-03-13T08:53:40;5.90;;;2.13;;
77798;SDS011;66989;50.426;15.352;2023-03-13T08:56:10;14.50;;;4.43;;
77798;SDS011;66989;50.426;15.352;2023-03-13T08:58:38;9.00;;;3.00;;
77798;SDS011;66989;50.426;15.352;2023-03-13T09:01:04;8.30;;;2.30;;
77798;SDS011;66989;50.426;15.352;2023-03-13T09:03:33;5.63;;;2.63;;
77798;SDS011;66989;50.426;15.352;2023-03-13T09:10:56;9.53;;;2.50;;
77798;SDS011;66989;50.426;15.352;2023-03-13T09:13:21;7.88;;;2.90;;
77798;SDS011;66989;50.426;15.352;2023-03-13T09:16:00;13.68;;;5.07;;
77798;SDS011;66989;50.426;15.352;2023-03-13T09:18:28;12.80;;;3.88;;
77798;SDS011;66989;50.426;15.352;2023-03-13T09:20:54;20.02;;;7.70;;
77798;SDS011;66989;50.426;15.352;2023-03-13T09:23:20;10.10;;;4.10;;
77798;SDS011;66989;50.426;15.352;2023-03-13T09:25:47;17.23;;;4.53;;
77798;SDS011;66989;50.426;15.352;2023-03-13T09:28:13;7.82;;;2.28;;
77798;SDS011;66989;50.426;15.352;2023-03-13T09:30:38;7.95;;;2.00;;
77798;SDS011;66989;50.426;15.352;2023-03-13T09:33:03;7.47;;;2.17;;
77798;SDS011;66989;50.426;15.352;2023-03-13T09:35:29;8.68;;;1.48;;
77798;SDS011;66989;50.426;15.352;2023-03-13T09:37:55;7.53;;;2.35;;
77798;SDS011;66989;50.426;15.352;2023-03-13T09:40:21;15.35;;;5.40;;
77798;SDS011;66989;50.426;15.352;2023-03-13T09:42:59;9.02;;;3.35;;
77798;SDS011;66989;50.426;15.352;2023-03-13T09:45:34;9.98;;;4.00;;
77798;SDS011;66989;50.426;15.352;2023-03-13T09:48:05;13.63;;;2.22;;
77798;SDS011;66989;50.426;15.352;2023-03-13T09:50:46;7.35;;;2.28;;
77798;SDS011;66989;50.426;15.352;2023-03-13T09:53:41;9.30;;;2.25;;
77798;SDS011;66989;50.426;15.352;2023-03-13T09:56:13;12.57;;;4.03;;
77798;SDS011;66989;50.426;15.352;2023-03-13T09:58:44;13.32;;;2.92;;
77798;SDS011;66989;50.426;15.352;2023-03-13T10:01:16;12.13;;;3.70;;
77798;SDS011;66989;50.426;15.352;2023-03-13T10:06:43;10.93;;;3.45;;
77798;SDS011;66989;50.426;15.352;2023-03-13T10:09:18;10.80;;;3.40;;
77798;SDS011;66989;50.426;15.352;2023-03-13T10:14:48;12.23;;;3.17;;
77798;SDS011;66989;50.426;15.352;2023-03-13T10:17:31;9.85;;;2.53;;
77798;SDS011;66989;50.426;15.352;2023-03-13T10:20:00;12.55;;;3.90;;
77798;SDS011;66989;50.426;15.352;2023-03-13T10:22:38;16.45;;;4.60;;
77798;SDS011;66989;50.426;15.352;2023-03-13T10:27:49;7.72;;;2.45;;
77798;SDS011;66989;50.426;15.352;2023-03-13T10:30:35;13.50;;;3.33;;
77798;SDS011;66989;50.426;15.352;2023-03-13T10:35:32;11.93;;;3.10;;
77798;SDS011;66989;50.426;15.352;2023-03-13T10:38:04;12.82;;;3.90;;
77798;SDS011;66989;50.426;15.352;2023-03-13T10:40:32;12.35;;;3.83;;
77798;SDS011;66989;50.426;15.352;2023-03-13T10:43:40;8.90;;;3.10;;
77798;SDS011;66989;50.426;15.352;2023-03-13T10:45:49;11.10;;;2.88;;
77798;SDS011;66989;50.426;15.352;2023-03-13T10:48:17;8.60;;;2.83;;
77798;SDS011;66989;50.426;15.352;2023-03-13T10:50:45;11.63;;;2.78;;
77798;SDS011;66989;50.426;15.352;2023-03-13T10:53:19;8.80;;;3.15;;
77798;SDS011;66989;50.426;15.352;2023-03-13T10:55:46;10.27;;;2.28;;
77798;SDS011;66989;50.426;15.352;2023-03-13T10:58:17;14.65;;;3.90;;
77798;SDS011;66989;50.426;15.352;2023-03-13T11:00:48;8.55;;;3.40;;
77798;SDS011;66989;50.426;15.352;2023-03-13T11:03:15;9.65;;;5.20;;
77798;SDS011;66989;50.426;15.352;2023-03-13T11:06:00;17.60;;;6.47;;
77798;SDS011;66989;50.426;15.352;2023-03-13T11:08:32;14.27;;;4.65;;
77798;SDS011;66989;50.426;15.352;2023-03-13T11:10:59;11.85;;;5.85;;
77798;SDS011;66989;50.426;15.352;2023-03-13T11:13:38;11.73;;;4.18;;
77798;SDS011;66989;50.426;15.352;2023-03-13T11:16:13;13.70;;;3.88;;
77798;SDS011;66989;50.426;15.352;2023-03-13T11:25:02;9.40;;;3.45;;
77798;SDS011;66989;50.426;15.352;2023-03-13T11:38:37;7.82;;;3.20;;
77798;SDS011;66989;50.426;15.352;2023-03-13T11:43:44;10.45;;;3.42;;
77798;SDS011;66989;50.426;15.352;2023-03-13T11:51:50;7.95;;;3.47;;
77798;SDS011;66989;50.426;15.352;2023-03-13T11:54:36;5.57;;;2.30;;
77798;SDS011;66989;50.426;15.352;2023-03-13T11:57:14;12.68;;;2.88;;
77798;SDS011;66989;50.426;15.352;2023-03-13T12:05:53;9.88;;;2.80;;
77798;SDS011;66989;50.426;15.352;2023-03-13T12:08:33;14.32;;;2.72;;
77798;SDS011;66989;50.426;15.352;2023-03-13T12:11:12;7.88;;;2.35;;
77798;SDS011;66989;50.426;15.352;2023-03-13T12:13:45;10.43;;;2.33;;
77798;SDS011;66989;50.426;15.352;2023-03-13T12:16:17;7.07;;;1.85;;
77798;SDS011;66989;50.426;15.352;2023-03-13T12:18:45;6.75;;;2.30;;
77798;SDS011;66989;50.426;15.352;2023-03-13T12:26:36;6.57;;;2.58;;
77798;SDS011;66989;50.426;15.352;2023-03-13T12:32:12;10.77;;;3.33;;
77798;SDS011;66989;50.426;15.352;2023-03-13T12:34:43;15.57;;;3.40;;
77798;SDS011;66989;50.426;15.352;2023-03-13T12:45:48;10.73;;;3.10;;
77798;SDS011;66989;50.426;15.352;2023-03-13T12:48:18;7.35;;;2.78;;
77798;SDS011;66989;50.426;15.352;2023-03-13T12:53:41;10.38;;;3.22;;
77798;SDS011;66989;50.426;15.352;2023-03-13T12:59:14;9.63;;;3.63;;
77798;SDS011;66989;50.426;15.352;2023-03-13T13:01:48;13.38;;;3.20;;
77798;SDS011;66989;50.426;15.352;2023-03-13T13:04:27;10.70;;;2.90;;
77798;SDS011;66989;50.426;15.352;2023-03-13T13:07:06;11.60;;;4.20;;
77798;SDS011;66989;50.426;15.352;2023-03-13T13:12:33;8.02;;;3.85;;
77798;SDS011;66989;50.426;15.352;2023-03-13T13:17:48;9.02;;;3.40;;
77798;SDS011;66989;50.426;15.352;2023-03-13T13:29:03;8.32;;;3.30;;
77798;SDS011;66989;50.426;15.352;2023-03-13T13:36:51;8.77;;;3.83;;
77798;SDS011;66989;50.426;15.352;2023-03-13T13:45:04;11.05;;;4.15;;
77798;SDS011;66989;50.426;15.352;2023-03-13T13:47:47;11.55;;;5.60;;
77798;SDS011;66989;50.426;15.352;2023-03-13T13:50:17;13.85;;;4.53;;
77798;SDS011;66989;50.426;15.352;2023-03-13T13:52:48;16.27;;;4.15;;
77798;SDS011;66989;50.426;15.352;2023-03-13T13:57:45;9.45;;;3.05;;
77798;SDS011;66989;50.426;15.352;2023-03-13T14:00:20;9.10;;;3.17;;
77798;SDS011;66989;50.426;15.352;2023-03-13T14:02:53;6.93;;;2.53;;
77798;SDS011;66989;50.426;15.352;2023-03-13T14:05:27;11.02;;;2.80;;
77798;SDS011;66989;50.426;15.352;2023-03-13T14:07:56;6.50;;;2.88;;
77798;SDS011;66989;50.426;15.352;2023-03-13T14:10:36;6.57;;;3.25;;
77798;SDS011;66989;50.426;15.352;2023-03-13T14:13:15;8.88;;;3.38;;
77798;SDS011;66989;50.426;15.352;2023-03-13T14:15:43;6.88;;;4.05;;
77798;SDS011;66989;50.426;15.352;2023-03-13T14:18:25;9.85;;;4.97;;
77798;SDS011;66989;50.426;15.352;2023-03-13T14:23:37;14.40;;;8.30;;
77798;SDS011;66989;50.426;15.352;2023-03-13T14:28:44;12.38;;;5.80;;
77798;SDS011;66989;50.426;15.352;2023-03-13T14:31:21;49.40;;;20.17;;
77798;SDS011;66989;50.426;15.352;2023-03-13T14:38:49;13.07;;;6.13;;
77798;SDS011;66989;50.426;15.352;2023-03-13T14:41:30;12.48;;;5.88;;
77798;SDS011;66989;50.426;15.352;2023-03-13T14:44:01;11.98;;;7.10;;
77798;SDS011;66989;50.426;15.352;2023-03-13T14:48:55;68.53;;;30.02;;
77798;SDS011;66989;50.426;15.352;2023-03-13T14:51:22;42.75;;;19.63;;
77798;SDS011;66989;50.426;15.352;2023-03-13T14:56:20;36.55;;;20.55;;
77798;SDS011;66989;50.426;15.352;2023-03-13T14:59:18;29.20;;;15.02;;
77798;SDS011;66989;50.426;15.352;2023-03-13T15:01:59;50.03;;;24.90;;
77798;SDS011;66989;50.426;15.352;2023-03-13T15:04:48;35.47;;;16.38;;
77798;SDS011;66989;50.426;15.352;2023-03-13T15:07:17;14.20;;;6.70;;
77798;SDS011;66989;50.426;15.352;2023-03-13T15:09:44;8.52;;;4.35;;
77798;SDS011;66989;50.426;15.352;2023-03-13T15:12:15;10.27;;;4.15;;
77798;SDS011;66989;50.426;15.352;2023-03-13T15:14:43;14.38;;;5.93;;
77798;SDS011;66989;50.426;15.352;2023-03-13T15:17:21;16.35;;;8.48;;
77798;SDS011;66989;50.426;15.352;2023-03-13T15:19:55;12.38;;;5.28;;
77798;SDS011;66989;50.426;15.352;2023-03-13T15:22:29;12.73;;;5.43;;
77798;SDS011;66989;50.426;15.352;2023-03-13T15:24:59;11.13;;;4.75;;
77798;SDS011;66989;50.426;15.352;2023-03-13T15:27:25;9.27;;;4.75;;
77798;SDS011;66989;50.426;15.352;2023-03-13T15:29:51;7.18;;;2.97;;
77798;SDS011;66989;50.426;15.352;2023-03-13T15:32:36;10.85;;;2.75;;
77798;SDS011;66989;50.426;15.352;2023-03-13T15:35:45;3.58;;;1.10;;
77798;SDS011;66989;50.426;15.352;2023-03-13T15:37:53;5.88;;;2.05;;
77798;SDS011;66989;50.426;15.352;2023-03-13T15:40:23;5.38;;;1.98;;
77798;SDS011;66989;50.426;15.352;2023-03-13T15:42:52;15.75;;;7.28;;
77798;SDS011;66989;50.426;15.352;2023-03-13T15:45:18;38.08;;;19.05;;
77798;SDS011;66989;50.426;15.352;2023-03-13T15:47:45;19.20;;;11.13;;
77798;SDS011;66989;50.426;15.352;2023-03-13T15:50:11;10.27;;;5.38;;
77798;SDS011;66989;50.426;15.352;2023-03-13T15:52:38;6.53;;;2.50;;
77798;SDS011;66989;50.426;15.352;2023-03-13T15:55:04;2.55;;;1.20;;
77798;SDS011;66989;50.426;15.352;2023-03-13T15:57:32;5.10;;;2.35;;
77798;SDS011;66989;50.426;15.352;2023-03-13T16:00:00;7.30;;;2.50;;
77798;SDS011;66989;50.426;15.352;2023-03-13T16:02:26;4.30;;;2.30;;
77798;SDS011;66989;50.426;15.352;2023-03-13T16:04:52;4.73;;;2.60;;
77798;SDS011;66989;50.426;15.352;2023-03-13T16:07:20;52.30;;;20.15;;
77798;SDS011;66989;50.426;15.352;2023-03-13T16:09:46;145.68;;;59.90;;
77798;SDS011;66989;50.426;15.352;2023-03-13T16:14:38;150.02;;;60.65;;
77798;SDS011;66989;50.426;15.352;2023-03-13T16:17:14;181.07;;;74.75;;
77798;SDS011;66989;50.426;15.352;2023-03-13T16:19:41;81.78;;;34.75;;
77798;SDS011;66989;50.426;15.352;2023-03-13T16:22:09;28.98;;;13.48;;
77798;SDS011;66989;50.426;15.352;2023-03-13T16:24:35;36.15;;;16.33;;
77798;SDS011;66989;50.426;15.352;2023-03-13T16:27:01;23.15;;;12.30;;
77798;SDS011;66989;50.426;15.352;2023-03-13T16:29:29;34.75;;;18.05;;
77798;SDS011;66989;50.426;15.352;2023-03-13T16:31:55;30.40;;;16.50;;
77798;SDS011;66989;50.426;15.352;2023-03-13T16:34:20;17.95;;;8.05;;
77798;SDS011;66989;50.426;15.352;2023-03-13T16:36:45;12.15;;;5.13;;
77798;SDS011;66989;50.426;15.352;2023-03-13T16:39:13;8.05;;;2.33;;